Airfield :







YOU CAN JOIN US ON...

 
LOGIN :

Register | Disclaimer

   EN    FR    IT 

 









Legend :    VFR   Marginal VFR   IFR   Intensive IFR   Very Intensive IFR
Visi :
Ceiling :
>= 8 km
>= 3000ft
5 to 8 km
1000 to 3000 ft
1500m to 5 km
500 to 1000 ft
800 to 1500m
200 to 500 ft
< 800m
< 200 ft
Symbols :   Thunderstorms  Fog  Heavy snow  Heavy precipitations  Wind > 20 kt






- Airport Elevation : 84 ft
- IATA code : YJT


CYJT - Stephenville

CURRENT METAR :
  • 232200Z 11020G25KT 15SM BKN025 BKN080 08/04 A3021 RMK SC6AC1 SLP231

EXPIRED METARs :
  • 232100Z 13015G23KT 15SM FEW015 SCT025 SCT080 08/03 A3023 RMK SF1SC3AC2 SF TR SLP239
  • 232000Z 10014G19KT 15SM FEW025 BKN085 09/04 A3023 RMK SC2AC3 SLP238

TAF TAF CYJT
Valid from the 23 at 18:00 until the 24 at 18:00 UTC


231738Z 2318/2418 12012G22KT P6SM BKN030
TEMPO 2318/2405 BKN020
BECMG 2319/2321 14015G25KT
FM240500 15025G40KT P6SM BKN120
FM240800 16025G40KT 6SM -RA BR OVC020
FM241400 23015G25KT 4SM -DZ BR OVC007 RMK NXT FCST BY 240000Z



MET'MAP, your aeronautical weather chart ! - Copyright ORBIFLY December 2007 - Disclaimer

ORBIFLY MET'MAP TEAM :

Programming & Development : Alexandra Zaïnal
Concept & Development : Baudouin d'Aumeries
Co-Development & Prog : Marc-Olivier Méhu
Technical & hardware support : Manuel Goepfert

Contact : metmap@orbifly.com




SOURCES & CREDITS :

   NOAA